Terminal Aerodrome Forecast
Issued by NWS

Home | Current Version | Previous Version | Text Only | Print | Product List | Glossary On
Versions: 1 2 3 4 5 6 7 8 9 10 11 12 13 14 15
000
FTUS46 KSEW 050530
TAFBLI
TAF
KBLI 050530Z 0506/0606 13004KT P6SM VCSH SCT050 OVC110
      TEMPO 0508/0512 BKN050 OVC110
     FM051200 08008KT 5SM -SHSN SCT020 OVC035
     FM051800 06012G20KT P6SM -SN BKN025 BKN050
     FM052200 05012G25KT P6SM BKN050=

USA.gov is the U.S. government's official web portal to all federal, state and local government web resources and services.